sensor_id;sensor_type;location;lat;lon;timestamp;pressure;altitude;pressure_sealevel;temperature;humidity
77227;BME280;66234;47.642;19.144;2024-02-16T00:01:25;101089.03;;;7.42;95.49
77227;BME280;66234;47.642;19.144;2024-02-16T00:04:28;101088.53;;;7.39;95.99
77227;BME280;66234;47.642;19.144;2024-02-16T00:07:31;101090.69;;;7.43;95.87
77227;BME280;66234;47.642;19.144;2024-02-16T00:10:33;101085.88;;;7.39;94.94
77227;BME280;66234;47.642;19.144;2024-02-16T00:13:36;101083.38;;;7.37;94.92
77227;BME280;66234;47.642;19.144;2024-02-16T00:16:39;101085.03;;;7.38;95.07
77227;BME280;66234;47.642;19.144;2024-02-16T00:19:42;101078.91;;;7.38;94.65
77227;BME280;66234;47.642;19.144;2024-02-16T00:22:45;101077.22;;;7.37;94.93
77227;BME280;66234;47.642;19.144;2024-02-16T00:25:47;101077.88;;;7.39;94.71
77227;BME280;66234;47.642;19.144;2024-02-16T00:28:50;101079.53;;;7.40;94.73
77227;BME280;66234;47.642;19.144;2024-02-16T00:31:54;101082.38;;;7.38;95.32
77227;BME280;66234;47.642;19.144;2024-02-16T00:34:57;101072.56;;;7.39;94.84
77227;BME280;66234;47.642;19.144;2024-02-16T00:38:00;101074.56;;;7.37;94.40
77227;BME280;66234;47.642;19.144;2024-02-16T00:41:03;101079.06;;;7.36;93.80
77227;BME280;66234;47.642;19.144;2024-02-16T00:44:07;101074.88;;;7.34;93.49
77227;BME280;66234;47.642;19.144;2024-02-16T00:47:10;101087.34;;;7.41;92.81
77227;BME280;66234;47.642;19.144;2024-02-16T00:50:12;101077.03;;;7.38;92.69
77227;BME280;66234;47.642;19.144;2024-02-16T00:53:15;101077.06;;;7.46;91.76
77227;BME280;66234;47.642;19.144;2024-02-16T00:56:17;101076.38;;;7.52;91.42
77227;BME280;66234;47.642;19.144;2024-02-16T00:59:20;101073.38;;;7.47;91.29
77227;BME280;66234;47.642;19.144;2024-02-16T01:02:23;101077.56;;;7.42;91.85
77227;BME280;66234;47.642;19.144;2024-02-16T01:05:30;101076.53;;;7.43;92.09
77227;BME280;66234;47.642;19.144;2024-02-16T01:08:33;101074.06;;;7.49;91.71
77227;BME280;66234;47.642;19.144;2024-02-16T01:11:35;101071.22;;;7.51;91.23
77227;BME280;66234;47.642;19.144;2024-02-16T01:14:38;101072.41;;;7.48;90.99
77227;BME280;66234;47.642;19.144;2024-02-16T01:17:40;101065.91;;;7.43;91.09
77227;BME280;66234;47.642;19.144;2024-02-16T01:20:43;101065.72;;;7.44;90.80
77227;BME280;66234;47.642;19.144;2024-02-16T01:23:45;101067.09;;;7.40;90.96
77227;BME280;66234;47.642;19.144;2024-02-16T01:26:48;101063.75;;;7.38;90.86
77227;BME280;66234;47.642;19.144;2024-02-16T01:29:51;101063.75;;;7.30;91.38
77227;BME280;66234;47.642;19.144;2024-02-16T01:32:53;101060.63;;;7.35;91.34
77227;BME280;66234;47.642;19.144;2024-02-16T01:35:56;101061.94;;;7.39;91.23
77227;BME280;66234;47.642;19.144;2024-02-16T01:38:58;101056.59;;;7.31;91.23
77227;BME280;66234;47.642;19.144;2024-02-16T01:42:01;101062.25;;;7.36;91.79
77227;BME280;66234;47.642;19.144;2024-02-16T01:45:04;101053.59;;;7.26;91.36
77227;BME280;66234;47.642;19.144;2024-02-16T01:48:07;101049.78;;;7.20;91.27
77227;BME280;66234;47.642;19.144;2024-02-16T01:51:11;101060.25;;;7.14;92.00
77227;BME280;66234;47.642;19.144;2024-02-16T01:54:14;101056.09;;;7.03;93.11
77227;BME280;66234;47.642;19.144;2024-02-16T01:57:20;101061.53;;;6.78;93.08
77227;BME280;66234;47.642;19.144;2024-02-16T02:00:22;101056.03;;;6.71;93.28
77227;BME280;66234;47.642;19.144;2024-02-16T02:03:25;101054.72;;;6.75;93.60
77227;BME280;66234;47.642;19.144;2024-02-16T02:06:28;101060.31;;;6.56;94.02
77227;BME280;66234;47.642;19.144;2024-02-16T02:09:30;101051.59;;;6.30;95.29
77227;BME280;66234;47.642;19.144;2024-02-16T02:12:33;101057.81;;;6.13;96.37
77227;BME280;66234;47.642;19.144;2024-02-16T02:15:36;101053.50;;;6.12;96.32
77227;BME280;66234;47.642;19.144;2024-02-16T02:18:40;101052.28;;;5.98;96.22
77227;BME280;66234;47.642;19.144;2024-02-16T02:21:43;101053.50;;;5.86;96.40
77227;BME280;66234;47.642;19.144;2024-02-16T02:24:47;101048.97;;;5.79;96.58
77227;BME280;66234;47.642;19.144;2024-02-16T02:27:51;101055.31;;;5.60;96.76
77227;BME280;66234;47.642;19.144;2024-02-16T02:30:53;101052.56;;;5.44;97.33
77227;BME280;66234;47.642;19.144;2024-02-16T02:33:56;101055.91;;;5.29;97.91
77227;BME280;66234;47.642;19.144;2024-02-16T02:36:59;101056.63;;;5.13;98.89
77227;BME280;66234;47.642;19.144;2024-02-16T02:40:02;101057.53;;;5.04;99.84
77227;BME280;66234;47.642;19.144;2024-02-16T02:43:08;101051.84;;;4.81;100.00
77227;BME280;66234;47.642;19.144;2024-02-16T02:46:17;101060.09;;;4.78;100.00
77227;BME280;66234;47.642;19.144;2024-02-16T02:49:19;101059.03;;;4.71;100.00
77227;BME280;66234;47.642;19.144;2024-02-16T02:52:22;101053.09;;;4.60;100.00
77227;BME280;66234;47.642;19.144;2024-02-16T02:55:24;101062.78;;;4.51;100.00
77227;BME280;66234;47.642;19.144;2024-02-16T02:58:27;101062.03;;;4.59;100.00
77227;BME280;66234;47.642;19.144;2024-02-16T03:01:30;101068.44;;;4.56;100.00
77227;BME280;66234;47.642;19.144;2024-02-16T03:04:33;101061.94;;;4.51;100.00
77227;BME280;66234;47.642;19.144;2024-02-16T03:07:37;101061.03;;;4.42;100.00
77227;BME280;66234;47.642;19.144;2024-02-16T03:10:40;101073.22;;;4.53;100.00
77227;BME280;66234;47.642;19.144;2024-02-16T03:13:43;101061.69;;;4.44;100.00
77227;BME280;66234;47.642;19.144;2024-02-16T03:16:45;101059.25;;;4.33;100.00
77227;BME280;66234;47.642;19.144;2024-02-16T03:19:48;101067.63;;;4.29;100.00
77227;BME280;66234;47.642;19.144;2024-02-16T03:22:50;101065.72;;;4.21;100.00
77227;BME280;66234;47.642;19.144;2024-02-16T03:25:53;101063.97;;;4.12;100.00
77227;BME280;66234;47.642;19.144;2024-02-16T03:28:55;101068.69;;;4.09;100.00
77227;BME280;66234;47.642;19.144;2024-02-16T03:31:59;101066.63;;;4.03;100.00
77227;BME280;66234;47.642;19.144;2024-02-16T03:35:01;101061.22;;;3.95;100.00
77227;BME280;66234;47.642;19.144;2024-02-16T03:38:04;101069.09;;;3.87;100.00
77227;BME280;66234;47.642;19.144;2024-02-16T03:41:07;101057.25;;;3.81;100.00
77227;BME280;66234;47.642;19.144;2024-02-16T03:44:09;101065.63;;;3.77;100.00
77227;BME280;66234;47.642;19.144;2024-02-16T03:47:12;101069.25;;;3.76;100.00
77227;BME280;66234;47.642;19.144;2024-02-16T03:50:14;101063.81;;;3.77;100.00
77227;BME280;66234;47.642;19.144;2024-02-16T03:53:18;101056.31;;;3.73;100.00
77227;BME280;66234;47.642;19.144;2024-02-16T03:56:20;101066.78;;;3.65;100.00
77227;BME280;66234;47.642;19.144;2024-02-16T03:59:23;101067.06;;;3.62;100.00
77227;BME280;66234;47.642;19.144;2024-02-16T04:02:26;101071.50;;;3.52;100.00
77227;BME280;66234;47.642;19.144;2024-02-16T04:05:28;101070.16;;;3.48;100.00
77227;BME280;66234;47.642;19.144;2024-02-16T04:08:35;101077.38;;;3.46;100.00
77227;BME280;66234;47.642;19.144;2024-02-16T04:11:37;101071.00;;;3.38;100.00
77227;BME280;66234;47.642;19.144;2024-02-16T04:14:40;101062.66;;;3.33;100.00
77227;BME280;66234;47.642;19.144;2024-02-16T04:17:44;101076.72;;;3.34;100.00
77227;BME280;66234;47.642;19.144;2024-02-16T04:20:47;101076.84;;;3.32;100.00
77227;BME280;66234;47.642;19.144;2024-02-16T04:23:49;101081.56;;;3.29;100.00
77227;BME280;66234;47.642;19.144;2024-02-16T04:26:52;101077.66;;;3.23;100.00
77227;BME280;66234;47.642;19.144;2024-02-16T04:29:55;101081.00;;;3.25;100.00
77227;BME280;66234;47.642;19.144;2024-02-16T04:32:57;101085.75;;;3.22;100.00
77227;BME280;66234;47.642;19.144;2024-02-16T04:36:00;101082.28;;;3.12;100.00
77227;BME280;66234;47.642;19.144;2024-02-16T04:39:03;101088.94;;;3.06;100.00
77227;BME280;66234;47.642;19.144;2024-02-16T04:42:06;101087.84;;;2.99;100.00
77227;BME280;66234;47.642;19.144;2024-02-16T04:45:11;101091.59;;;2.97;100.00
77227;BME280;66234;47.642;19.144;2024-02-16T04:48:15;101091.97;;;2.92;100.00
77227;BME280;66234;47.642;19.144;2024-02-16T04:51:18;101092.97;;;2.91;100.00
77227;BME280;66234;47.642;19.144;2024-02-16T04:54:20;101089.63;;;2.89;100.00
77227;BME280;66234;47.642;19.144;2024-02-16T04:57:23;101088.94;;;3.06;100.00
77227;BME280;66234;47.642;19.144;2024-02-16T05:00:26;101092.25;;;2.89;100.00
77227;BME280;66234;47.642;19.144;2024-02-16T05:03:28;101088.38;;;2.84;100.00
77227;BME280;66234;47.642;19.144;2024-02-16T05:06:31;101088.09;;;2.87;100.00
77227;BME280;66234;47.642;19.144;2024-02-16T05:09:34;101088.66;;;2.81;100.00
77227;BME280;66234;47.642;19.144;2024-02-16T05:12:37;101089.91;;;2.77;100.00
77227;BME280;66234;47.642;19.144;2024-02-16T05:15:40;101089.06;;;2.86;100.00
77227;BME280;66234;47.642;19.144;2024-02-16T05:18:43;101091.84;;;2.75;100.00
77227;BME280;66234;47.642;19.144;2024-02-16T05:21:45;101103.91;;;2.68;100.00
77227;BME280;66234;47.642;19.144;2024-02-16T05:24:48;101098.34;;;2.61;100.00
77227;BME280;66234;47.642;19.144;2024-02-16T05:27:50;101100.41;;;2.58;100.00
77227;BME280;66234;47.642;19.144;2024-02-16T05:30:53;101100.41;;;2.58;100.00
77227;BME280;66234;47.642;19.144;2024-02-16T05:33:58;101107.38;;;2.68;100.00
77227;BME280;66234;47.642;19.144;2024-02-16T05:37:01;101100.56;;;2.56;100.00
77227;BME280;66234;47.642;19.144;2024-02-16T05:40:07;101090.41;;;2.52;100.00
77227;BME280;66234;47.642;19.144;2024-02-16T05:43:27;101098.72;;;2.47;100.00
77227;BME280;66234;47.642;19.144;2024-02-16T05:46:29;101103.16;;;2.47;100.00
77227;BME280;66234;47.642;19.144;2024-02-16T05:49:32;101108.16;;;2.50;100.00
77227;BME280;66234;47.642;19.144;2024-02-16T05:52:36;101110.69;;;2.51;100.00
77227;BME280;66234;47.642;19.144;2024-02-16T05:55:39;101104.81;;;2.48;100.00
77227;BME280;66234;47.642;19.144;2024-02-16T05:58:41;101114.84;;;2.54;100.00
77227;BME280;66234;47.642;19.144;2024-02-16T06:01:44;101122.34;;;2.49;100.00
77227;BME280;66234;47.642;19.144;2024-02-16T06:04:46;101122.63;;;2.46;100.00
77227;BME280;66234;47.642;19.144;2024-02-16T06:07:49;101112.75;;;2.48;100.00
77227;BME280;66234;47.642;19.144;2024-02-16T06:10:52;101121.38;;;2.50;100.00
77227;BME280;66234;47.642;19.144;2024-02-16T06:13:56;101120.81;;;2.56;100.00
77227;BME280;66234;47.642;19.144;2024-02-16T06:16:59;101121.13;;;2.62;100.00
77227;BME280;66234;47.642;19.144;2024-02-16T06:20:03;101122.50;;;2.66;100.00
77227;BME280;66234;47.642;19.144;2024-02-16T06:23:06;101127.53;;;2.69;100.00
77227;BME280;66234;47.642;19.144;2024-02-16T06:26:09;101128.41;;;2.79;100.00
77227;BME280;66234;47.642;19.144;2024-02-16T06:29:12;101130.47;;;2.76;100.00
77227;BME280;66234;47.642;19.144;2024-02-16T06:32:16;101129.66;;;2.85;100.00
77227;BME280;66234;47.642;19.144;2024-02-16T06:35:19;101135.66;;;2.96;100.00
77227;BME280;66234;47.642;19.144;2024-02-16T06:38:22;101139.13;;;3.06;100.00
77227;BME280;66234;47.642;19.144;2024-02-16T06:41:25;101147.63;;;3.19;100.00
77227;BME280;66234;47.642;19.144;2024-02-16T06:44:28;101145.81;;;3.29;100.00
77227;BME280;66234;47.642;19.144;2024-02-16T06:47:33;101148.22;;;3.32;100.00
77227;BME280;66234;47.642;19.144;2024-02-16T06:50:36;101153.63;;;3.40;100.00
77227;BME280;66234;47.642;19.144;2024-02-16T06:53:38;101164.47;;;3.47;100.00
77227;BME280;66234;47.642;19.144;2024-02-16T06:56:41;101167.25;;;3.55;100.00
77227;BME280;66234;47.642;19.144;2024-02-16T06:59:44;101172.25;;;3.68;100.00
77227;BME280;66234;47.642;19.144;2024-02-16T07:02:46;101171.41;;;3.86;100.00
77227;BME280;66234;47.642;19.144;2024-02-16T07:05:49;101178.63;;;4.03;100.00
77227;BME280;66234;47.642;19.144;2024-02-16T07:08:52;101176.88;;;4.21;100.00
77227;BME280;66234;47.642;19.144;2024-02-16T07:11:55;101186.09;;;4.27;100.00
77227;BME280;66234;47.642;19.144;2024-02-16T07:14:57;101186.03;;;4.36;100.00
77227;BME280;66234;47.642;19.144;2024-02-16T07:18:00;101185.72;;;4.49;100.00
77227;BME280;66234;47.642;19.144;2024-02-16T07:21:03;101183.16;;;4.57;100.00
77227;BME280;66234;47.642;19.144;2024-02-16T07:24:06;101175.72;;;4.70;100.00
77227;BME280;66234;47.642;19.144;2024-02-16T07:27:09;101171.31;;;4.88;99.81
77227;BME280;66234;47.642;19.144;2024-02-16T07:30:13;101183.75;;;5.05;98.84
77227;BME280;66234;47.642;19.144;2024-02-16T07:33:24;101181.34;;;5.12;97.72
77227;BME280;66234;47.642;19.144;2024-02-16T07:36:31;101170.25;;;5.26;95.55
77227;BME280;66234;47.642;19.144;2024-02-16T07:39:34;101172.44;;;5.30;94.64
77227;BME280;66234;47.642;19.144;2024-02-16T07:42:40;101177.97;;;5.37;94.97
77227;BME280;66234;47.642;19.144;2024-02-16T07:45:44;101173.56;;;5.45;93.17
77227;BME280;66234;47.642;19.144;2024-02-16T07:48:48;101182.44;;;5.54;93.37
77227;BME280;66234;47.642;19.144;2024-02-16T07:51:51;101176.22;;;5.63;92.30
77227;BME280;66234;47.642;19.144;2024-02-16T07:54:54;101167.34;;;5.72;91.65
77227;BME280;66234;47.642;19.144;2024-02-16T07:57:56;101170.38;;;5.77;91.17
77227;BME280;66234;47.642;19.144;2024-02-16T08:00:59;101170.38;;;5.77;90.51
77227;BME280;66234;47.642;19.144;2024-02-16T08:04:01;101165.28;;;5.83;90.39
77227;BME280;66234;47.642;19.144;2024-02-16T08:07:07;101162.06;;;5.89;90.11
77227;BME280;66234;47.642;19.144;2024-02-16T08:10:10;101160.22;;;5.90;90.32
77227;BME280;66234;47.642;19.144;2024-02-16T08:13:15;101168.97;;;6.08;89.80
77227;BME280;66234;47.642;19.144;2024-02-16T08:16:18;101166.50;;;6.14;89.27
77227;BME280;66234;47.642;19.144;2024-02-16T08:19:21;101168.38;;;6.22;88.06
77227;BME280;66234;47.642;19.144;2024-02-16T08:22:24;101173.25;;;6.26;88.60
77227;BME280;66234;47.642;19.144;2024-02-16T08:25:27;101165.34;;;6.42;87.31
77227;BME280;66234;47.642;19.144;2024-02-16T08:28:33;101164.16;;;6.70;86.03
77227;BME280;66234;47.642;19.144;2024-02-16T08:31:39;101173.81;;;6.80;84.93
77227;BME280;66234;47.642;19.144;2024-02-16T08:34:43;101173.50;;;6.83;84.91
77227;BME280;66234;47.642;19.144;2024-02-16T08:37:48;101170.41;;;6.95;84.32
77227;BME280;66234;47.642;19.144;2024-02-16T08:40:51;101172.44;;;7.09;83.01
77227;BME280;66234;47.642;19.144;2024-02-16T08:43:57;101172.28;;;7.19;82.06
77227;BME280;66234;47.642;19.144;2024-02-16T08:47:00;101178.47;;;7.19;81.45
77227;BME280;66234;47.642;19.144;2024-02-16T08:50:03;101173.94;;;7.20;81.89
77227;BME280;66234;47.642;19.144;2024-02-16T08:53:05;101175.63;;;7.29;81.79
77227;BME280;66234;47.642;19.144;2024-02-16T08:56:11;101175.66;;;7.37;80.28
77227;BME280;66234;47.642;19.144;2024-02-16T08:59:14;101178.34;;;7.53;78.09
77227;BME280;66234;47.642;19.144;2024-02-16T09:02:17;101174.19;;;7.58;77.70
77227;BME280;66234;47.642;19.144;2024-02-16T09:05:20;101173.34;;;7.74;78.16
77227;BME280;66234;47.642;19.144;2024-02-16T09:08:25;101170.38;;;7.93;78.08
77227;BME280;66234;47.642;19.144;2024-02-16T09:11:28;101171.16;;;8.01;78.09
77227;BME280;66234;47.642;19.144;2024-02-16T09:14:31;101172.69;;;8.04;77.52
77227;BME280;66234;47.642;19.144;2024-02-16T09:17:34;101176.31;;;8.11;76.69
77227;BME280;66234;47.642;19.144;2024-02-16T09:20:37;101169.16;;;8.19;76.09
77227;BME280;66234;47.642;19.144;2024-02-16T09:23:40;101180.00;;;8.26;75.23
77227;BME280;66234;47.642;19.144;2024-02-16T09:26:43;101174.13;;;8.38;74.82
77227;BME280;66234;47.642;19.144;2024-02-16T09:29:50;101176.44;;;8.42;73.40
77227;BME280;66234;47.642;19.144;2024-02-16T09:32:53;101181.78;;;8.42;74.29
77227;BME280;66234;47.642;19.144;2024-02-16T09:35:56;101185.13;;;8.44;72.94
77227;BME280;66234;47.642;19.144;2024-02-16T09:38:59;101183.56;;;8.57;72.41
77227;BME280;66234;47.642;19.144;2024-02-16T09:42:01;101187.41;;;8.63;70.72
77227;BME280;66234;47.642;19.144;2024-02-16T09:45:06;101186.84;;;8.83;68.73
77227;BME280;66234;47.642;19.144;2024-02-16T09:48:10;101186.88;;;9.06;67.49
77227;BME280;66234;47.642;19.144;2024-02-16T09:51:17;101187.16;;;9.19;66.78
77227;BME280;66234;47.642;19.144;2024-02-16T09:54:21;101191.28;;;9.29;65.92
77227;BME280;66234;47.642;19.144;2024-02-16T09:57:25;101184.03;;;9.38;64.24
77227;BME280;66234;47.642;19.144;2024-02-16T10:00:28;101172.94;;;9.49;64.45
77227;BME280;66234;47.642;19.144;2024-02-16T10:03:32;101178.88;;;9.81;63.45
77227;BME280;66234;47.642;19.144;2024-02-16T10:06:48;101177.91;;;9.97;62.58
77227;BME280;66234;47.642;19.144;2024-02-16T10:09:52;101170.19;;;10.02;61.98
77227;BME280;66234;47.642;19.144;2024-02-16T10:13:06;101167.63;;;10.09;60.90
77227;BME280;66234;47.642;19.144;2024-02-16T10:16:11;101161.66;;;10.21;61.45
77227;BME280;66234;47.642;19.144;2024-02-16T10:19:17;101169.81;;;10.42;60.09
77227;BME280;66234;47.642;19.144;2024-02-16T10:22:20;101162.69;;;10.49;60.56
77227;BME280;66234;47.642;19.144;2024-02-16T10:25:25;101164.63;;;10.55;60.37
77227;BME280;66234;47.642;19.144;2024-02-16T10:28:31;101164.44;;;10.57;60.69
77227;BME280;66234;47.642;19.144;2024-02-16T10:31:33;101154.78;;;10.56;61.09
77227;BME280;66234;47.642;19.144;2024-02-16T10:34:37;101153.66;;;10.65;60.32
77227;BME280;66234;47.642;19.144;2024-02-16T10:37:43;101146.56;;;10.72;59.89
77227;BME280;66234;47.642;19.144;2024-02-16T10:40:48;101140.75;;;10.83;60.12
77227;BME280;66234;47.642;19.144;2024-02-16T10:43:58;101145.91;;;10.84;59.91
77227;BME280;66234;47.642;19.144;2024-02-16T10:47:03;101136.22;;;10.83;58.25
77227;BME280;66234;47.642;19.144;2024-02-16T10:50:07;101133.63;;;10.90;59.21
77227;BME280;66234;47.642;19.144;2024-02-16T10:53:17;101128.84;;;10.71;58.82
77227;BME280;66234;47.642;19.144;2024-02-16T10:56:36;101122.19;;;10.81;59.37
77227;BME280;66234;47.642;19.144;2024-02-16T10:59:43;101117.28;;;10.99;58.80
77227;BME280;66234;47.642;19.144;2024-02-16T11:05:56;101116.44;;;10.99;59.17
77227;BME280;66234;47.642;19.144;2024-02-16T11:09:02;101111.13;;;11.20;59.98
77227;BME280;66234;47.642;19.144;2024-02-16T11:12:13;101104.66;;;11.14;59.11
77227;BME280;66234;47.642;19.144;2024-02-16T11:15:30;101106.84;;;11.25;59.62
77227;BME280;66234;47.642;19.144;2024-02-16T11:18:41;101099.47;;;11.27;60.44
77227;BME280;66234;47.642;19.144;2024-02-16T11:22:03;101098.69;;;11.33;59.74
77227;BME280;66234;47.642;19.144;2024-02-16T11:25:14;101091.69;;;11.53;59.64
77227;BME280;66234;47.642;19.144;2024-02-16T11:28:18;101095.34;;;11.52;59.51
77227;BME280;66234;47.642;19.144;2024-02-16T11:31:21;101094.94;;;11.49;60.14
77227;BME280;66234;47.642;19.144;2024-02-16T11:34:25;101091.88;;;11.52;59.95
77227;BME280;66234;47.642;19.144;2024-02-16T11:37:29;101085.47;;;11.53;59.62
77227;BME280;66234;47.642;19.144;2024-02-16T11:40:32;101089.19;;;11.52;59.22
77227;BME280;66234;47.642;19.144;2024-02-16T11:43:36;101089.50;;;11.63;59.87
77227;BME280;66234;47.642;19.144;2024-02-16T11:46:44;101082.97;;;11.66;59.65
77227;BME280;66234;47.642;19.144;2024-02-16T11:49:46;101075.84;;;11.80;59.06
77227;BME280;66234;47.642;19.144;2024-02-16T11:52:49;101075.78;;;11.73;58.92
77227;BME280;66234;47.642;19.144;2024-02-16T11:55:52;101073.50;;;11.70;59.06
77227;BME280;66234;47.642;19.144;2024-02-16T11:58:55;101065.41;;;11.91;59.96
77227;BME280;66234;47.642;19.144;2024-02-16T12:01:58;101065.94;;;12.08;60.20
77227;BME280;66234;47.642;19.144;2024-02-16T12:05:01;101072.59;;;12.18;58.78
77227;BME280;66234;47.642;19.144;2024-02-16T12:08:06;101058.63;;;12.29;59.63
77227;BME280;66234;47.642;19.144;2024-02-16T12:11:10;101058.88;;;12.41;59.37
77227;BME280;66234;47.642;19.144;2024-02-16T12:14:12;101059.28;;;12.31;57.46
77227;BME280;66234;47.642;19.144;2024-02-16T12:17:15;101057.44;;;12.38;58.27
77227;BME280;66234;47.642;19.144;2024-02-16T12:20:18;101048.75;;;12.36;57.08
77227;BME280;66234;47.642;19.144;2024-02-16T12:23:20;101047.19;;;12.48;58.04
77227;BME280;66234;47.642;19.144;2024-02-16T12:26:23;101052.81;;;12.66;57.45
77227;BME280;66234;47.642;19.144;2024-02-16T12:29:26;101053.84;;;12.65;56.86
77227;BME280;66234;47.642;19.144;2024-02-16T12:32:28;101048.66;;;12.57;56.88
77227;BME280;66234;47.642;19.144;2024-02-16T12:35:31;101039.44;;;12.86;57.49
77227;BME280;66234;47.642;19.144;2024-02-16T12:38:34;101039.34;;;13.13;55.88
77227;BME280;66234;47.642;19.144;2024-02-16T12:41:37;101036.03;;;13.24;55.84
77227;BME280;66234;47.642;19.144;2024-02-16T12:44:42;101039.16;;;13.21;55.19
77227;BME280;66234;47.642;19.144;2024-02-16T12:47:45;101036.88;;;13.18;54.73
77227;BME280;66234;47.642;19.144;2024-02-16T12:50:49;101031.31;;;13.46;54.21
77227;BME280;66234;47.642;19.144;2024-02-16T12:53:53;101025.72;;;13.67;53.61
77227;BME280;66234;47.642;19.144;2024-02-16T12:56:56;101019.69;;;13.91;53.48
77227;BME280;66234;47.642;19.144;2024-02-16T12:59:59;101014.25;;;14.11;52.19
77227;BME280;66234;47.642;19.144;2024-02-16T13:03:02;101011.47;;;14.50;51.86
77227;BME280;66234;47.642;19.144;2024-02-16T13:06:04;101020.16;;;14.52;51.02
77227;BME280;66234;47.642;19.144;2024-02-16T13:09:07;101011.78;;;15.29;50.07
77227;BME280;66234;47.642;19.144;2024-02-16T13:12:11;101003.03;;;15.40;49.05
77227;BME280;66234;47.642;19.144;2024-02-16T13:15:14;100998.75;;;15.26;48.64
77227;BME280;66234;47.642;19.144;2024-02-16T13:18:29;101001.16;;;16.25;47.96
77227;BME280;66234;47.642;19.144;2024-02-16T13:21:32;101000.81;;;15.79;48.17
77227;BME280;66234;47.642;19.144;2024-02-16T13:24:35;100994.94;;;15.64;48.65
77227;BME280;66234;47.642;19.144;2024-02-16T13:27:38;100998.94;;;15.80;47.36
77227;BME280;66234;47.642;19.144;2024-02-16T13:30:41;101001.66;;;15.55;48.20
77227;BME280;66234;47.642;19.144;2024-02-16T13:33:43;100992.28;;;15.82;47.57
77227;BME280;66234;47.642;19.144;2024-02-16T13:36:46;101001.50;;;15.93;48.06
77227;BME280;66234;47.642;19.144;2024-02-16T13:39:49;100987.78;;;15.94;47.42
77227;BME280;66234;47.642;19.144;2024-02-16T13:42:52;100984.59;;;16.04;46.92
77227;BME280;66234;47.642;19.144;2024-02-16T13:45:57;100981.63;;;16.41;46.34
77227;BME280;66234;47.642;19.144;2024-02-16T13:49:01;100986.66;;;16.38;45.87
77227;BME280;66234;47.642;19.144;2024-02-16T13:52:04;100990.78;;;16.40;46.43
77227;BME280;66234;47.642;19.144;2024-02-16T13:55:07;100996.13;;;16.11;46.20
77227;BME280;66234;47.642;19.144;2024-02-16T13:58:11;100989.28;;;15.90;46.38
77227;BME280;66234;47.642;19.144;2024-02-16T14:01:14;100991.69;;;15.98;46.17
77227;BME280;66234;47.642;19.144;2024-02-16T14:04:17;100986.59;;;16.08;46.29
77227;BME280;66234;47.642;19.144;2024-02-16T14:07:21;100989.00;;;16.34;46.78
77227;BME280;66234;47.642;19.144;2024-02-16T14:10:23;100985.91;;;16.79;46.28
77227;BME280;66234;47.642;19.144;2024-02-16T14:13:26;100983.22;;;16.79;46.14
77227;BME280;66234;47.642;19.144;2024-02-16T14:16:30;100972.75;;;17.12;44.97
77227;BME280;66234;47.642;19.144;2024-02-16T14:19:32;100980.47;;;16.97;45.85
77227;BME280;66234;47.642;19.144;2024-02-16T14:22:39;100982.25;;;17.14;45.04
77227;BME280;66234;47.642;19.144;2024-02-16T14:25:42;100974.84;;;17.10;44.36
77227;BME280;66234;47.642;19.144;2024-02-16T14:28:45;100975.31;;;17.48;44.02
77227;BME280;66234;47.642;19.144;2024-02-16T14:31:48;100977.53;;;17.51;43.61
77227;BME280;66234;47.642;19.144;2024-02-16T14:34:52;100974.41;;;16.72;44.71
77227;BME280;66234;47.642;19.144;2024-02-16T14:37:54;100987.47;;;16.38;45.67
77227;BME280;66234;47.642;19.144;2024-02-16T14:40:57;100986.13;;;16.48;45.00
77227;BME280;66234;47.642;19.144;2024-02-16T14:44:00;100979.31;;;16.45;45.16
77227;BME280;66234;47.642;19.144;2024-02-16T14:47:03;100969.13;;;17.18;44.83
77227;BME280;66234;47.642;19.144;2024-02-16T14:50:06;100969.47;;;17.33;44.90
77227;BME280;66234;47.642;19.144;2024-02-16T14:53:10;100972.19;;;17.21;43.71
77227;BME280;66234;47.642;19.144;2024-02-16T14:56:13;100972.16;;;17.10;44.19
77227;BME280;66234;47.642;19.144;2024-02-16T14:59:16;100972.00;;;16.93;44.76
77227;BME280;66234;47.642;19.144;2024-02-16T15:02:19;100970.16;;;16.76;44.84
77227;BME280;66234;47.642;19.144;2024-02-16T15:05:23;100973.00;;;16.69;45.40
77227;BME280;66234;47.642;19.144;2024-02-16T15:08:25;100984.19;;;15.82;46.47
77227;BME280;66234;47.642;19.144;2024-02-16T15:11:29;100977.13;;;15.63;46.99
77227;BME280;66234;47.642;19.144;2024-02-16T15:14:32;100980.16;;;14.93;49.08
77227;BME280;66234;47.642;19.144;2024-02-16T15:17:36;100969.22;;;14.57;50.21
77227;BME280;66234;47.642;19.144;2024-02-16T15:20:39;100969.75;;;14.21;51.87
77227;BME280;66234;47.642;19.144;2024-02-16T15:23:41;100971.19;;;13.41;53.68
77227;BME280;66234;47.642;19.144;2024-02-16T15:26:44;100980.66;;;12.97;55.88
77227;BME280;66234;47.642;19.144;2024-02-16T15:29:46;100974.63;;;12.82;56.60
77227;BME280;66234;47.642;19.144;2024-02-16T15:32:49;100971.66;;;12.58;57.61
77227;BME280;66234;47.642;19.144;2024-02-16T15:35:57;100982.13;;;12.33;59.61
77227;BME280;66234;47.642;19.144;2024-02-16T15:39:00;100991.31;;;12.11;59.60
77227;BME280;66234;47.642;19.144;2024-02-16T15:42:03;100981.97;;;11.94;60.66
77227;BME280;66234;47.642;19.144;2024-02-16T15:45:05;100987.19;;;11.75;61.16
77227;BME280;66234;47.642;19.144;2024-02-16T15:48:11;100983.25;;;11.43;62.48
77227;BME280;66234;47.642;19.144;2024-02-16T15:51:14;100991.88;;;11.17;64.05
77227;BME280;66234;47.642;19.144;2024-02-16T15:54:17;100989.41;;;10.95;64.72